Aérodrome :
LOGIN :

S'inscrire | Disclaimer

   EN    FR    IT 

 










Légende :    VFR   VFR Marginal   IFR   IFR Intensif   IFR Très Intensif
Visi : 
Plafond : 
>= 8 km
>= 3000ft
5 à 8 km
1000 à 3000 ft
1500m à 5 km
500 à 1000 ft
800 à 1500m
200 à 500 ft
< 800m
< 200 ft
Symboles :   Orages  Brouillard  Fortes neiges  Fortes précipitations  Vent > 20 kt
SIGMETs :   Divers  Orages  Givrage  Turbulence  Onde Orograph.  Cendres Volcan.






- Altitude de l'aérodrome : 151 ft
- Code IATA : PES


ULPB - Petrozavodsk

DERNIER METAR :
  • 050400Z AUTO 10002MPS 070V140 1100 0800SW // ///001/// 11/11 Q1001 RMK QBB050 QFE747/0996

METARs EXPIRÉS :
  • 050300Z AUTO 08002MPS 0700 0500NE FG ///002/// 10/10 Q1001 RMK QBB060 QFE747/0996
  • 050200Z AUTO 09002MPS 020V170 1000 0700NE PRFG 10/10 Q1002 RMK QBB060 QFE747/0997

TAF TAF ULPB
Valide du 05 à 03h jusqu'au 05 à 12h UTC


050201Z 0503/0512 12003MPS 1000 BR BKN002
TEMPO 0503/0506 0500 FG VV001
BECMG 0506/0507 6000 BKN005 BKN015
TEMPO 0507/0512 3100 -SHRA BR BKN011 BKN016CB



MET'MAP, la Météo Aéronautique d'un coup d'oeil ! - Copyright ORBIFLY Décembre 2007 - Disclaimer

ORBIFLY MET'MAP TEAM :

Programmation & Développement : Alexandra Zaïnal
Sur une idée originale de : Baudouin d'Aumeries
Assistance à la programmation : Marc-Olivier Méhu
Soutien technique & logistique : Manuel Goepfert

Contact : metmap@orbifly.com




SOURCES & CREDITS :

   NOAA